Fiala-Fernbrugg Air Base LOXA

Flugplatz Daten

Name: Fiala-Fernbrugg Air Base

Ident: LOXA

Lat: 47,53329849

Long: 14,13169956

Platzhöhe: 2100 ft

IataCode:

City: Aigen im Ennstal

Metar

2012/09/10 08:20
LOXA 100820Z VRB02KT 50KM FEW120AC SCT300CI 17/13 Q1021 NOSIG RMK SCT

Taf

2016/09/09 06:33
TAF TAF LOXA 090515Z 0906/0918 VRB03KT 0500 FG SCT060
BECMG 0906/0908 9999 NSW FEW060
BECMG 0909/0911 04007KT
TEMPO 0910/0915 SCT060 BKN100
Gewünschte Webcam nicht vorhanden? Dann fügen Sie eine hinzu. Sie wird dann so schnell wie möglich freigeschaltet
Url: Title: